sensor_id;sensor_type;location;lat;lon;timestamp;temperature;humidity
37108;DHT22;23019;49.300;6.846;2022-08-11T00:01:15;30.00;99.90
37108;DHT22;23019;49.300;6.846;2022-08-11T00:03:17;30.00;99.90
37108;DHT22;23019;49.300;6.846;2022-08-11T00:05:20;30.00;99.90
37108;DHT22;23019;49.300;6.846;2022-08-11T00:07:22;30.00;99.90
37108;DHT22;23019;49.300;6.846;2022-08-11T00:09:32;30.00;99.90
37108;DHT22;23019;49.300;6.846;2022-08-11T00:11:44;30.00;99.90
37108;DHT22;23019;49.300;6.846;2022-08-11T00:13:47;30.00;99.90
37108;DHT22;23019;49.300;6.846;2022-08-11T00:15:48;30.00;99.90
37108;DHT22;23019;49.300;6.846;2022-08-11T00:17:56;30.00;99.90
37108;DHT22;23019;49.300;6.846;2022-08-11T00:20:07;30.10;99.90
37108;DHT22;23019;49.300;6.846;2022-08-11T00:22:09;30.00;99.90
37108;DHT22;23019;49.300;6.846;2022-08-11T00:24:11;30.00;99.90
37108;DHT22;23019;49.300;6.846;2022-08-11T00:26:15;30.00;99.90
37108;DHT22;23019;49.300;6.846;2022-08-11T00:28:32;30.00;99.90
37108;DHT22;23019;49.300;6.846;2022-08-11T00:30:38;30.00;99.90
37108;DHT22;23019;49.300;6.846;2022-08-11T00:32:45;30.00;99.90
37108;DHT22;23019;49.300;6.846;2022-08-11T00:34:52;30.00;99.90
37108;DHT22;23019;49.300;6.846;2022-08-11T00:37:04;30.00;99.90
37108;DHT22;23019;49.300;6.846;2022-08-11T00:39:07;30.00;99.90
37108;DHT22;23019;49.300;6.846;2022-08-11T00:48:21;30.10;99.90
37108;DHT22;23019;49.300;6.846;2022-08-11T00:50:47;30.10;99.90
37108;DHT22;23019;49.300;6.846;2022-08-11T01:01:07;30.00;99.90
37108;DHT22;23019;49.300;6.846;2022-08-11T01:06:11;30.00;99.90
37108;DHT22;23019;49.300;6.846;2022-08-11T01:53:03;30.10;99.90
37108;DHT22;23019;49.300;6.846;2022-08-11T01:55:17;30.10;99.90
37108;DHT22;23019;49.300;6.846;2022-08-11T01:57:41;30.20;99.90
37108;DHT22;23019;49.300;6.846;2022-08-11T01:59:48;30.10;99.90
37108;DHT22;23019;49.300;6.846;2022-08-11T02:06:47;30.20;99.90
37108;DHT22;23019;49.300;6.846;2022-08-11T02:09:03;30.30;99.90
37108;DHT22;23019;49.300;6.846;2022-08-11T02:11:36;30.30;99.90
37108;DHT22;23019;49.300;6.846;2022-08-11T02:16:02;30.20;99.90
37108;DHT22;23019;49.300;6.846;2022-08-11T02:18:26;30.20;99.90
37108;DHT22;23019;49.300;6.846;2022-08-11T02:20:51;30.20;99.90
37108;DHT22;23019;49.300;6.846;2022-08-11T02:23:26;30.30;99.90
37108;DHT22;23019;49.300;6.846;2022-08-11T02:30:24;30.20;99.90
37108;DHT22;23019;49.300;6.846;2022-08-11T02:32:38;30.20;99.90
37108;DHT22;23019;49.300;6.846;2022-08-11T02:35:27;30.20;99.90
37108;DHT22;23019;49.300;6.846;2022-08-11T02:44:50;30.20;99.90
37108;DHT22;23019;49.300;6.846;2022-08-11T02:47:40;30.20;99.90
37108;DHT22;23019;49.300;6.846;2022-08-11T02:49:51;30.20;99.90
37108;DHT22;23019;49.300;6.846;2022-08-11T02:52:29;30.20;99.90
37108;DHT22;23019;49.300;6.846;2022-08-11T03:02:06;30.20;99.90
37108;DHT22;23019;49.300;6.846;2022-08-11T03:04:17;30.20;99.90
37108;DHT22;23019;49.300;6.846;2022-08-11T03:09:05;30.20;99.90
37108;DHT22;23019;49.300;6.846;2022-08-11T03:13:42;30.10;99.90
37108;DHT22;23019;49.300;6.846;2022-08-11T03:16:17;30.10;99.90
37108;DHT22;23019;49.300;6.846;2022-08-11T03:19:10;30.10;99.90
37108;DHT22;23019;49.300;6.846;2022-08-11T03:21:27;30.10;99.90
37108;DHT22;23019;49.300;6.846;2022-08-11T03:26:11;30.10;99.90
37108;DHT22;23019;49.300;6.846;2022-08-11T03:28:26;30.00;99.90
37108;DHT22;23019;49.300;6.846;2022-08-11T03:30:34;30.00;99.90
37108;DHT22;23019;49.300;6.846;2022-08-11T03:33:14;30.00;99.90
37108;DHT22;23019;49.300;6.846;2022-08-11T03:35:40;30.00;99.90
37108;DHT22;23019;49.300;6.846;2022-08-11T03:37:59;30.00;99.90
37108;DHT22;23019;49.300;6.846;2022-08-11T03:43:02;30.00;99.90
37108;DHT22;23019;49.300;6.846;2022-08-11T03:45:27;30.00;99.90
37108;DHT22;23019;49.300;6.846;2022-08-11T03:50:14;29.90;99.90
37108;DHT22;23019;49.300;6.846;2022-08-11T03:52:37;29.90;99.90
37108;DHT22;23019;49.300;6.846;2022-08-11T03:55:09;29.90;99.90
37108;DHT22;23019;49.300;6.846;2022-08-11T03:57:41;30.00;99.90
37108;DHT22;23019;49.300;6.846;2022-08-11T04:02:48;29.90;99.90
37108;DHT22;23019;49.300;6.846;2022-08-11T04:10:24;29.90;99.90
37108;DHT22;23019;49.300;6.846;2022-08-11T04:14:50;29.80;99.90
37108;DHT22;23019;49.300;6.846;2022-08-11T04:31:59;29.80;99.90
37108;DHT22;23019;49.300;6.846;2022-08-11T04:45:19;29.80;99.90
37108;DHT22;23019;49.300;6.846;2022-08-11T04:56:00;29.70;99.90
37108;DHT22;23019;49.300;6.846;2022-08-11T05:01:23;29.60;99.90
37108;DHT22;23019;49.300;6.846;2022-08-11T05:07:17;29.50;99.90
37108;DHT22;23019;49.300;6.846;2022-08-11T05:09:27;29.50;99.90
37108;DHT22;23019;49.300;6.846;2022-08-11T05:11:44;29.50;99.90
37108;DHT22;23019;49.300;6.846;2022-08-11T05:16:45;29.50;99.90
37108;DHT22;23019;49.300;6.846;2022-08-11T05:19:06;29.50;99.90
37108;DHT22;23019;49.300;6.846;2022-08-11T05:21:25;29.50;99.90
37108;DHT22;23019;49.300;6.846;2022-08-11T05:23:48;29.50;99.90
37108;DHT22;23019;49.300;6.846;2022-08-11T05:26:14;29.50;99.90
37108;DHT22;23019;49.300;6.846;2022-08-11T05:28:41;29.40;99.90
37108;DHT22;23019;49.300;6.846;2022-08-11T05:31:11;29.40;99.90
37108;DHT22;23019;49.300;6.846;2022-08-11T05:33:33;29.40;99.90
37108;DHT22;23019;49.300;6.846;2022-08-11T05:38:29;29.40;99.90
37108;DHT22;23019;49.300;6.846;2022-08-11T05:40:53;29.40;99.90
37108;DHT22;23019;49.300;6.846;2022-08-11T05:43:13;29.30;99.90
37108;DHT22;23019;49.300;6.846;2022-08-11T05:45:34;29.30;99.90
37108;DHT22;23019;49.300;6.846;2022-08-11T05:47:54;29.30;99.90
37108;DHT22;23019;49.300;6.846;2022-08-11T05:50:15;29.30;99.90
37108;DHT22;23019;49.300;6.846;2022-08-11T05:52:36;29.30;99.90
37108;DHT22;23019;49.300;6.846;2022-08-11T05:55:01;29.30;99.90
37108;DHT22;23019;49.300;6.846;2022-08-11T05:57:27;29.30;99.90
37108;DHT22;23019;49.300;6.846;2022-08-11T05:59:30;29.20;99.90
37108;DHT22;23019;49.300;6.846;2022-08-11T06:01:32;29.20;99.90
37108;DHT22;23019;49.300;6.846;2022-08-11T06:03:33;29.20;99.90
37108;DHT22;23019;49.300;6.846;2022-08-11T06:05:57;29.20;99.90
37108;DHT22;23019;49.300;6.846;2022-08-11T06:07:59;29.10;99.90
37108;DHT22;23019;49.300;6.846;2022-08-11T06:10:00;29.10;99.90
37108;DHT22;23019;49.300;6.846;2022-08-11T06:12:17;29.10;99.90
37108;DHT22;23019;49.300;6.846;2022-08-11T06:14:20;29.10;99.90
37108;DHT22;23019;49.300;6.846;2022-08-11T06:16:25;29.10;99.90
37108;DHT22;23019;49.300;6.846;2022-08-11T06:18:28;29.00;99.90
37108;DHT22;23019;49.300;6.846;2022-08-11T06:20:30;29.00;99.90
37108;DHT22;23019;49.300;6.846;2022-08-11T06:22:37;29.00;99.90
37108;DHT22;23019;49.300;6.846;2022-08-11T06:24:50;29.00;99.90
37108;DHT22;23019;49.300;6.846;2022-08-11T06:26:51;28.90;99.90
37108;DHT22;23019;49.300;6.846;2022-08-11T06:28:57;28.90;99.90
37108;DHT22;23019;49.300;6.846;2022-08-11T06:30:59;28.90;99.90
37108;DHT22;23019;49.300;6.846;2022-08-11T06:33:02;28.90;99.90
37108;DHT22;23019;49.300;6.846;2022-08-11T06:35:34;28.90;99.90
37108;DHT22;23019;49.300;6.846;2022-08-11T06:40:08;28.80;99.90
37108;DHT22;23019;49.300;6.846;2022-08-11T06:44:31;28.70;99.90
37108;DHT22;23019;49.300;6.846;2022-08-11T06:47:23;28.70;99.90
37108;DHT22;23019;49.300;6.846;2022-08-11T06:49:02;28.70;99.90
37108;DHT22;23019;49.300;6.846;2022-08-11T06:51:08;28.60;99.90
37108;DHT22;23019;49.300;6.846;2022-08-11T06:53:11;28.60;99.90
37108;DHT22;23019;49.300;6.846;2022-08-11T06:55:22;28.50;99.90
37108;DHT22;23019;49.300;6.846;2022-08-11T06:57:45;28.50;99.90
37108;DHT22;23019;49.300;6.846;2022-08-11T07:00:06;28.50;99.90
37108;DHT22;23019;49.300;6.846;2022-08-11T07:04:58;28.40;99.90
37108;DHT22;23019;49.300;6.846;2022-08-11T07:12:36;28.30;99.90
37108;DHT22;23019;49.300;6.846;2022-08-11T07:14:58;28.30;99.90
37108;DHT22;23019;49.300;6.846;2022-08-11T07:17:22;28.30;99.90
37108;DHT22;23019;49.300;6.846;2022-08-11T07:19:27;28.20;99.90
37108;DHT22;23019;49.300;6.846;2022-08-11T07:21:47;28.10;99.90
37108;DHT22;23019;49.300;6.846;2022-08-11T07:24:28;28.10;99.90
37108;DHT22;23019;49.300;6.846;2022-08-11T07:26:53;28.10;99.90
37108;DHT22;23019;49.300;6.846;2022-08-11T07:29:14;28.00;99.90
37108;DHT22;23019;49.300;6.846;2022-08-11T07:31:51;28.00;99.90
37108;DHT22;23019;49.300;6.846;2022-08-11T07:34:14;27.90;99.90
37108;DHT22;23019;49.300;6.846;2022-08-11T07:36:18;27.90;99.90
37108;DHT22;23019;49.300;6.846;2022-08-11T07:38:24;27.90;99.90
37108;DHT22;23019;49.300;6.846;2022-08-11T07:40:42;27.80;99.90
37108;DHT22;23019;49.300;6.846;2022-08-11T07:42:48;27.80;99.90
37108;DHT22;23019;49.300;6.846;2022-08-11T07:44:49;27.70;99.90
37108;DHT22;23019;49.300;6.846;2022-08-11T07:47:10;27.70;99.90
37108;DHT22;23019;49.300;6.846;2022-08-11T07:49:33;27.70;99.90
37108;DHT22;23019;49.300;6.846;2022-08-11T07:51:55;27.60;99.90
37108;DHT22;23019;49.300;6.846;2022-08-11T07:54:15;27.60;99.90
37108;DHT22;23019;49.300;6.846;2022-08-11T07:56:17;27.60;99.90
37108;DHT22;23019;49.300;6.846;2022-08-11T07:58:23;27.50;99.90
37108;DHT22;23019;49.300;6.846;2022-08-11T08:00:50;27.50;99.90
37108;DHT22;23019;49.300;6.846;2022-08-11T08:03:10;27.50;99.90
37108;DHT22;23019;49.300;6.846;2022-08-11T08:05:29;27.40;99.90
37108;DHT22;23019;49.300;6.846;2022-08-11T08:07:49;27.40;99.90
37108;DHT22;23019;49.300;6.846;2022-08-11T08:10:09;27.30;99.90
37108;DHT22;23019;49.300;6.846;2022-08-11T08:12:29;27.30;99.90
37108;DHT22;23019;49.300;6.846;2022-08-11T08:14:51;27.30;99.90
37108;DHT22;23019;49.300;6.846;2022-08-11T08:17:11;27.20;99.90
37108;DHT22;23019;49.300;6.846;2022-08-11T08:19:32;27.20;99.90
37108;DHT22;23019;49.300;6.846;2022-08-11T08:21:33;27.20;99.90
37108;DHT22;23019;49.300;6.846;2022-08-11T08:23:33;27.10;99.90
37108;DHT22;23019;49.300;6.846;2022-08-11T08:25:38;27.10;99.90
37108;DHT22;23019;49.300;6.846;2022-08-11T08:27:39;27.00;99.90
37108;DHT22;23019;49.300;6.846;2022-08-11T08:29:43;27.00;99.90
37108;DHT22;23019;49.300;6.846;2022-08-11T08:32:03;27.00;99.90
37108;DHT22;23019;49.300;6.846;2022-08-11T08:34:04;27.00;99.90
37108;DHT22;23019;49.300;6.846;2022-08-11T08:36:06;27.00;99.90
37108;DHT22;23019;49.300;6.846;2022-08-11T08:38:14;26.90;99.90
37108;DHT22;23019;49.300;6.846;2022-08-11T08:40:19;26.90;99.90
37108;DHT22;23019;49.300;6.846;2022-08-11T08:42:46;26.90;99.90
37108;DHT22;23019;49.300;6.846;2022-08-11T08:45:15;26.90;99.90
37108;DHT22;23019;49.300;6.846;2022-08-11T08:47:29;26.80;99.90
37108;DHT22;23019;49.300;6.846;2022-08-11T08:50:11;26.80;99.90
37108;DHT22;23019;49.300;6.846;2022-08-11T08:52:22;27.40;99.90
37108;DHT22;23019;49.300;6.846;2022-08-11T08:54:44;30.10;99.90
37108;DHT22;23019;49.300;6.846;2022-08-11T10:25:20;53.60;99.90
37108;DHT22;23019;49.300;6.846;2022-08-11T10:27:47;53.10;99.90
37108;DHT22;23019;49.300;6.846;2022-08-11T10:30:07;52.80;99.90
37108;DHT22;23019;49.300;6.846;2022-08-11T10:32:33;52.30;99.90
37108;DHT22;23019;49.300;6.846;2022-08-11T10:35:00;51.80;99.90
37108;DHT22;23019;49.300;6.846;2022-08-11T10:37:29;51.30;99.90
37108;DHT22;23019;49.300;6.846;2022-08-11T10:39:43;50.80;99.90
37108;DHT22;23019;49.300;6.846;2022-08-11T10:41:48;50.30;99.90
37108;DHT22;23019;49.300;6.846;2022-08-11T10:44:08;49.80;99.90
37108;DHT22;23019;49.300;6.846;2022-08-11T10:46:22;49.30;99.90
37108;DHT22;23019;49.300;6.846;2022-08-11T10:48:42;49.00;99.90
37108;DHT22;23019;49.300;6.846;2022-08-11T10:50:53;48.60;99.90
37108;DHT22;23019;49.300;6.846;2022-08-11T10:53:29;48.20;99.90
37108;DHT22;23019;49.300;6.846;2022-08-11T10:55:49;47.80;99.90
37108;DHT22;23019;49.300;6.846;2022-08-11T10:58:19;47.50;99.90
37108;DHT22;23019;49.300;6.846;2022-08-11T11:00:59;47.10;99.90
37108;DHT22;23019;49.300;6.846;2022-08-11T11:03:09;46.80;99.90
37108;DHT22;23019;49.300;6.846;2022-08-11T11:05:28;46.50;99.90
37108;DHT22;23019;49.300;6.846;2022-08-11T11:08:07;46.20;99.90
37108;DHT22;23019;49.300;6.846;2022-08-11T11:10:34;45.90;99.90
37108;DHT22;23019;49.300;6.846;2022-08-11T11:12:55;45.70;99.90
37108;DHT22;23019;49.300;6.846;2022-08-11T11:15:20;45.40;99.90
37108;DHT22;23019;49.300;6.846;2022-08-11T11:17:45;45.20;99.90
37108;DHT22;23019;49.300;6.846;2022-08-11T11:20:06;45.00;99.90
37108;DHT22;23019;49.300;6.846;2022-08-11T11:22:11;44.70;99.90
37108;DHT22;23019;49.300;6.846;2022-08-11T11:25:16;44.40;99.90
37108;DHT22;23019;49.300;6.846;2022-08-11T11:28:09;44.20;99.90
37108;DHT22;23019;49.300;6.846;2022-08-11T11:30:26;44.00;99.90
37108;DHT22;23019;49.300;6.846;2022-08-11T11:32:47;43.80;99.90
37108;DHT22;23019;49.300;6.846;2022-08-11T11:35:06;43.60;99.90
37108;DHT22;23019;49.300;6.846;2022-08-11T11:37:09;43.30;99.90
37108;DHT22;23019;49.300;6.846;2022-08-11T11:39:18;43.20;99.90
37108;DHT22;23019;49.300;6.846;2022-08-11T11:41:23;43.00;99.90
37108;DHT22;23019;49.300;6.846;2022-08-11T11:43:27;42.90;99.90
37108;DHT22;23019;49.300;6.846;2022-08-11T11:45:29;42.70;99.90
37108;DHT22;23019;49.300;6.846;2022-08-11T11:47:38;42.60;99.90
37108;DHT22;23019;49.300;6.846;2022-08-11T11:49:50;42.40;99.90
37108;DHT22;23019;49.300;6.846;2022-08-11T11:51:56;42.30;99.90
37108;DHT22;23019;49.300;6.846;2022-08-11T11:54:28;42.10;99.90
37108;DHT22;23019;49.300;6.846;2022-08-11T11:56:41;42.00;99.90
37108;DHT22;23019;49.300;6.846;2022-08-11T12:01:59;41.70;99.90
37108;DHT22;23019;49.300;6.846;2022-08-11T12:04:46;41.60;99.90
37108;DHT22;23019;49.300;6.846;2022-08-11T12:06:56;41.40;99.90
37108;DHT22;23019;49.300;6.846;2022-08-11T12:11:40;41.10;99.90
37108;DHT22;23019;49.300;6.846;2022-08-11T12:14:13;41.00;99.90
37108;DHT22;23019;49.300;6.846;2022-08-11T12:16:33;40.90;99.90
37108;DHT22;23019;49.300;6.846;2022-08-11T12:19:36;40.80;99.90
37108;DHT22;23019;49.300;6.846;2022-08-11T12:21:48;40.60;99.90
37108;DHT22;23019;49.300;6.846;2022-08-11T12:24:44;40.60;99.90
37108;DHT22;23019;49.300;6.846;2022-08-11T12:27:13;40.50;99.90
37108;DHT22;23019;49.300;6.846;2022-08-11T12:29:39;40.30;99.90
37108;DHT22;23019;49.300;6.846;2022-08-11T12:32:03;40.20;99.90
37108;DHT22;23019;49.300;6.846;2022-08-11T12:34:12;40.00;99.90
37108;DHT22;23019;49.300;6.846;2022-08-11T12:36:14;39.90;99.90
37108;DHT22;23019;49.300;6.846;2022-08-11T12:38:18;39.80;99.90
37108;DHT22;23019;49.300;6.846;2022-08-11T12:40:33;39.60;99.90
37108;DHT22;23019;49.300;6.846;2022-08-11T12:43:02;39.70;99.90
37108;DHT22;23019;49.300;6.846;2022-08-11T12:45:33;39.50;99.90
37108;DHT22;23019;49.300;6.846;2022-08-11T12:47:45;39.40;99.90
37108;DHT22;23019;49.300;6.846;2022-08-11T12:50:06;39.20;99.90
37108;DHT22;23019;49.300;6.846;2022-08-11T12:52:26;39.20;99.90
37108;DHT22;23019;49.300;6.846;2022-08-11T12:56:48;39.00;99.90
37108;DHT22;23019;49.300;6.846;2022-08-11T12:59:08;39.00;99.90
37108;DHT22;23019;49.300;6.846;2022-08-11T13:01:28;38.80;99.90
37108;DHT22;23019;49.300;6.846;2022-08-11T13:03:48;38.80;99.90
37108;DHT22;23019;49.300;6.846;2022-08-11T13:06:08;38.60;99.90
37108;DHT22;23019;49.300;6.846;2022-08-11T13:08:13;38.50;99.90
37108;DHT22;23019;49.300;6.846;2022-08-11T13:19:05;38.10;99.90
37108;DHT22;23019;49.300;6.846;2022-08-11T13:21:49;38.10;99.90
37108;DHT22;23019;49.300;6.846;2022-08-11T13:24:25;38.10;99.90
37108;DHT22;23019;49.300;6.846;2022-08-11T13:27:18;38.00;99.90
37108;DHT22;23019;49.300;6.846;2022-08-11T13:29:38;38.00;99.90
37108;DHT22;23019;49.300;6.846;2022-08-11T13:32:26;37.80;99.90
37108;DHT22;23019;49.300;6.846;2022-08-11T13:40:48;37.60;99.90
37108;DHT22;23019;49.300;6.846;2022-08-11T13:43:13;37.50;99.90
37108;DHT22;23019;49.300;6.846;2022-08-11T13:45:32;37.40;99.90
37108;DHT22;23019;49.300;6.846;2022-08-11T13:47:39;37.30;99.90
37108;DHT22;23019;49.300;6.846;2022-08-11T13:50:07;37.20;99.90
37108;DHT22;23019;49.300;6.846;2022-08-11T13:52:48;37.10;99.90
37108;DHT22;23019;49.300;6.846;2022-08-11T13:55:53;37.00;99.90
37108;DHT22;23019;49.300;6.846;2022-08-11T13:58:23;36.90;99.90
37108;DHT22;23019;49.300;6.846;2022-08-11T14:00:43;36.90;99.90
37108;DHT22;23019;49.300;6.846;2022-08-11T14:03:01;36.80;99.90
37108;DHT22;23019;49.300;6.846;2022-08-11T14:06:21;36.70;99.90
37108;DHT22;23019;49.300;6.846;2022-08-11T14:08:43;36.70;99.90
37108;DHT22;23019;49.300;6.846;2022-08-11T14:11:12;36.70;99.90
37108;DHT22;23019;49.300;6.846;2022-08-11T14:14:12;36.60;99.90
37108;DHT22;23019;49.300;6.846;2022-08-11T14:16:46;36.50;99.90
37108;DHT22;23019;49.300;6.846;2022-08-11T14:21:54;36.50;99.90
37108;DHT22;23019;49.300;6.846;2022-08-11T14:29:58;36.30;99.90
37108;DHT22;23019;49.300;6.846;2022-08-11T14:32:47;36.20;99.90
37108;DHT22;23019;49.300;6.846;2022-08-11T14:40:22;36.00;99.90
37108;DHT22;23019;49.300;6.846;2022-08-11T14:42:44;35.90;99.90
37108;DHT22;23019;49.300;6.846;2022-08-11T14:45:06;35.90;99.90
37108;DHT22;23019;49.300;6.846;2022-08-11T14:47:42;35.80;99.90
37108;DHT22;23019;49.300;6.846;2022-08-11T14:49:44;35.80;99.90
37108;DHT22;23019;49.300;6.846;2022-08-11T14:51:47;35.70;99.90
37108;DHT22;23019;49.300;6.846;2022-08-11T14:53:51;35.50;99.90
37108;DHT22;23019;49.300;6.846;2022-08-11T14:56:12;35.60;99.90
37108;DHT22;23019;49.300;6.846;2022-08-11T14:58:35;35.60;99.90
37108;DHT22;23019;49.300;6.846;2022-08-11T15:00:42;35.50;99.90
37108;DHT22;23019;49.300;6.846;2022-08-11T15:02:51;35.40;99.90
37108;DHT22;23019;49.300;6.846;2022-08-11T15:05:14;35.40;99.90
37108;DHT22;23019;49.300;6.846;2022-08-11T15:07:16;35.30;99.90
37108;DHT22;23019;49.300;6.846;2022-08-11T15:09:17;35.30;99.90
37108;DHT22;23019;49.300;6.846;2022-08-11T15:11:24;35.20;99.90
37108;DHT22;23019;49.300;6.846;2022-08-11T15:13:43;35.30;99.90
37108;DHT22;23019;49.300;6.846;2022-08-11T15:15:47;35.20;99.90
37108;DHT22;23019;49.300;6.846;2022-08-11T15:18:13;35.20;99.90
37108;DHT22;23019;49.300;6.846;2022-08-11T15:20:20;35.10;99.90
37108;DHT22;23019;49.300;6.846;2022-08-11T15:22:40;35.10;99.90
37108;DHT22;23019;49.300;6.846;2022-08-11T15:25:02;35.10;99.90
37108;DHT22;23019;49.300;6.846;2022-08-11T15:27:10;34.90;99.90
37108;DHT22;23019;49.300;6.846;2022-08-11T15:29:37;34.90;99.90
37108;DHT22;23019;49.300;6.846;2022-08-11T15:32:02;34.90;99.90
37108;DHT22;23019;49.300;6.846;2022-08-11T15:34:29;34.80;99.90
37108;DHT22;23019;49.300;6.846;2022-08-11T15:36:54;34.80;99.90
37108;DHT22;23019;49.300;6.846;2022-08-11T15:39:44;34.80;99.90
37108;DHT22;23019;49.300;6.846;2022-08-11T15:42:12;34.80;99.90
37108;DHT22;23019;49.300;6.846;2022-08-11T15:44:34;34.70;99.90
37108;DHT22;23019;49.300;6.846;2022-08-11T15:47:04;34.70;99.90
37108;DHT22;23019;49.300;6.846;2022-08-11T15:49:14;34.60;99.90
37108;DHT22;23019;49.300;6.846;2022-08-11T15:53:39;34.50;99.90
37108;DHT22;23019;49.300;6.846;2022-08-11T15:55:44;34.50;99.90
37108;DHT22;23019;49.300;6.846;2022-08-11T15:57:48;34.40;99.90
37108;DHT22;23019;49.300;6.846;2022-08-11T16:00:08;34.40;99.90
37108;DHT22;23019;49.300;6.846;2022-08-11T16:02:28;34.30;99.90
37108;DHT22;23019;49.300;6.846;2022-08-11T16:04:51;34.30;99.90
37108;DHT22;23019;49.300;6.846;2022-08-11T16:07:05;34.30;99.90
37108;DHT22;23019;49.300;6.846;2022-08-11T16:09:35;34.20;99.90
37108;DHT22;23019;49.300;6.846;2022-08-11T16:11:40;34.10;99.90
37108;DHT22;23019;49.300;6.846;2022-08-11T16:13:47;34.10;99.90
37108;DHT22;23019;49.300;6.846;2022-08-11T16:16:09;34.10;99.90
37108;DHT22;23019;49.300;6.846;2022-08-11T16:18:28;34.00;99.90
37108;DHT22;23019;49.300;6.846;2022-08-11T16:20:43;34.00;99.90
37108;DHT22;23019;49.300;6.846;2022-08-11T16:22:48;34.00;99.90
37108;DHT22;23019;49.300;6.846;2022-08-11T16:24:50;34.00;99.90
37108;DHT22;23019;49.300;6.846;2022-08-11T16:26:58;34.00;99.90
37108;DHT22;23019;49.300;6.846;2022-08-11T16:29:04;33.90;99.90
37108;DHT22;23019;49.300;6.846;2022-08-11T16:31:10;33.90;99.90
37108;DHT22;23019;49.300;6.846;2022-08-11T16:33:11;33.80;99.90
37108;DHT22;23019;49.300;6.846;2022-08-11T16:35:15;33.80;99.90
37108;DHT22;23019;49.300;6.846;2022-08-11T16:37:36;33.80;99.90
37108;DHT22;23019;49.300;6.846;2022-08-11T16:39:55;33.70;99.90
37108;DHT22;23019;49.300;6.846;2022-08-11T16:41:56;33.70;99.90
37108;DHT22;23019;49.300;6.846;2022-08-11T16:44:17;33.60;99.90
37108;DHT22;23019;49.300;6.846;2022-08-11T16:46:37;33.60;99.90
37108;DHT22;23019;49.300;6.846;2022-08-11T16:48:58;33.60;99.90
37108;DHT22;23019;49.300;6.846;2022-08-11T16:50:59;33.60;99.90
37108;DHT22;23019;49.300;6.846;2022-08-11T16:53:01;33.50;99.90
37108;DHT22;23019;49.300;6.846;2022-08-11T16:55:02;33.50;99.90
37108;DHT22;23019;49.300;6.846;2022-08-11T16:57:06;33.50;99.90
37108;DHT22;23019;49.300;6.846;2022-08-11T16:59:52;33.40;99.90
37108;DHT22;23019;49.300;6.846;2022-08-11T17:02:30;33.40;99.90
37108;DHT22;23019;49.300;6.846;2022-08-11T17:04:57;33.30;99.90
37108;DHT22;23019;49.300;6.846;2022-08-11T17:07:23;33.30;99.90
37108;DHT22;23019;49.300;6.846;2022-08-11T17:09:49;33.30;99.90
37108;DHT22;23019;49.300;6.846;2022-08-11T17:12:12;33.20;99.90
37108;DHT22;23019;49.300;6.846;2022-08-11T17:14:42;33.30;99.90
37108;DHT22;23019;49.300;6.846;2022-08-11T17:16:51;33.20;99.90
37108;DHT22;23019;49.300;6.846;2022-08-11T17:19:12;33.10;99.90
37108;DHT22;23019;49.300;6.846;2022-08-11T17:21:58;33.10;99.90
37108;DHT22;23019;49.300;6.846;2022-08-11T17:24:25;33.00;99.90
37108;DHT22;23019;49.300;6.846;2022-08-11T17:26:41;33.00;99.90
37108;DHT22;23019;49.300;6.846;2022-08-11T17:29:02;33.00;99.90
37108;DHT22;23019;49.300;6.846;2022-08-11T17:31:10;32.90;99.90
37108;DHT22;23019;49.300;6.846;2022-08-11T17:33:36;32.80;99.90
37108;DHT22;23019;49.300;6.846;2022-08-11T17:36:02;32.80;99.90
37108;DHT22;23019;49.300;6.846;2022-08-11T17:40:20;32.80;99.90
37108;DHT22;23019;49.300;6.846;2022-08-11T17:42:36;32.80;99.90
37108;DHT22;23019;49.300;6.846;2022-08-11T17:45:09;32.80;99.90
37108;DHT22;23019;49.300;6.846;2022-08-11T17:47:34;32.60;99.90
37108;DHT22;23019;49.300;6.846;2022-08-11T17:50:04;32.60;99.90
37108;DHT22;23019;49.300;6.846;2022-08-11T17:52:12;32.60;99.90
37108;DHT22;23019;49.300;6.846;2022-08-11T17:54:36;32.60;99.90
37108;DHT22;23019;49.300;6.846;2022-08-11T17:56:57;32.60;99.90
37108;DHT22;23019;49.300;6.846;2022-08-11T17:59:17;32.50;99.90
37108;DHT22;23019;49.300;6.846;2022-08-11T18:01:51;32.50;99.90
37108;DHT22;23019;49.300;6.846;2022-08-11T18:04:16;32.50;99.90
37108;DHT22;23019;49.300;6.846;2022-08-11T18:06:25;32.40;99.90
37108;DHT22;23019;49.300;6.846;2022-08-11T18:08:32;32.40;99.90
37108;DHT22;23019;49.300;6.846;2022-08-11T18:10:58;32.40;99.90
37108;DHT22;23019;49.300;6.846;2022-08-11T18:13:22;32.30;99.90
37108;DHT22;23019;49.300;6.846;2022-08-11T18:15:49;32.30;99.90
37108;DHT22;23019;49.300;6.846;2022-08-11T18:18:14;32.20;99.90
37108;DHT22;23019;49.300;6.846;2022-08-11T18:20:34;32.20;99.90
37108;DHT22;23019;49.300;6.846;2022-08-11T18:23:00;32.20;99.90
37108;DHT22;23019;49.300;6.846;2022-08-11T18:25:32;32.10;99.90
37108;DHT22;23019;49.300;6.846;2022-08-11T18:27:54;32.20;99.90
37108;DHT22;23019;49.300;6.846;2022-08-11T18:30:17;32.10;99.90
37108;DHT22;23019;49.300;6.846;2022-08-11T18:32:38;32.10;99.90
37108;DHT22;23019;49.300;6.846;2022-08-11T18:35:01;32.10;99.90
37108;DHT22;23019;49.300;6.846;2022-08-11T18:37:31;32.00;99.90
37108;DHT22;23019;49.300;6.846;2022-08-11T18:40:11;31.90;99.90
37108;DHT22;23019;49.300;6.846;2022-08-11T18:42:33;31.90;99.90
37108;DHT22;23019;49.300;6.846;2022-08-11T18:45:00;31.90;99.90
37108;DHT22;23019;49.300;6.846;2022-08-11T18:47:29;31.90;99.90
37108;DHT22;23019;49.300;6.846;2022-08-11T18:49:52;31.90;99.90
37108;DHT22;23019;49.300;6.846;2022-08-11T18:52:16;31.90;99.90
37108;DHT22;23019;49.300;6.846;2022-08-11T18:54:58;31.80;99.90
37108;DHT22;23019;49.300;6.846;2022-08-11T18:57:19;31.80;99.90
37108;DHT22;23019;49.300;6.846;2022-08-11T18:59:45;31.70;99.90
37108;DHT22;23019;49.300;6.846;2022-08-11T19:02:05;31.70;99.90
37108;DHT22;23019;49.300;6.846;2022-08-11T19:04:28;31.70;99.90
37108;DHT22;23019;49.300;6.846;2022-08-11T19:06:55;31.60;99.90
37108;DHT22;23019;49.300;6.846;2022-08-11T19:09:21;31.60;99.90
37108;DHT22;23019;49.300;6.846;2022-08-11T19:11:46;31.50;99.90
37108;DHT22;23019;49.300;6.846;2022-08-11T19:14:18;31.60;99.90
37108;DHT22;23019;49.300;6.846;2022-08-11T19:16:42;31.50;99.90
37108;DHT22;23019;49.300;6.846;2022-08-11T19:19:11;31.50;99.90
37108;DHT22;23019;49.300;6.846;2022-08-11T19:21:38;31.40;99.90
37108;DHT22;23019;49.300;6.846;2022-08-11T19:24:02;31.40;99.90
37108;DHT22;23019;49.300;6.846;2022-08-11T19:26:23;31.30;99.90
37108;DHT22;23019;49.300;6.846;2022-08-11T19:28:45;31.40;99.90
37108;DHT22;23019;49.300;6.846;2022-08-11T19:31:07;31.30;99.90
37108;DHT22;23019;49.300;6.846;2022-08-11T19:33:27;31.20;99.90
37108;DHT22;23019;49.300;6.846;2022-08-11T19:35:48;31.20;99.90
37108;DHT22;23019;49.300;6.846;2022-08-11T19:38:11;31.20;99.90